Terminal Aerodrome Forecast
Issued by NWS

Home | Current Version | Previous Version | Text Only | Print | Product List | Glossary Off
Versions: 1 2 3 4 5 6 7 8 9 10 11 12 13 14 15 16 17 18

000
FTUS43 KMPX 181120
TAFRWF
TAF
KRWF 181120Z 1812/1912 36004KT P6SM SCT250
     FM181500 11011KT P6SM BKN150
     FM182300 12012G20KT 6SM RA VCTS OVC040CB
     FM190400 14014G22KT 4SM -RA BR SCT008 OVC017
     FM191000 18012KT P6SM VCSH OVC015=

USA.gov is the U.S. government's official web portal to all federal, state and local government web resources and services.